sensor_id;sensor_type;location;lat;lon;timestamp;temperature;humidity
43346;DHT22;28937;51.160;4.146;2023-04-25T00:02:25;14.10;88.50
43346;DHT22;28937;51.160;4.146;2023-04-25T00:04:51;14.10;88.80
43346;DHT22;28937;51.160;4.146;2023-04-25T00:07:17;14.00;88.50
43346;DHT22;28937;51.160;4.146;2023-04-25T00:09:44;14.10;88.60
43346;DHT22;28937;51.160;4.146;2023-04-25T00:12:10;14.00;88.60
43346;DHT22;28937;51.160;4.146;2023-04-25T00:14:36;14.00;88.70
43346;DHT22;28937;51.160;4.146;2023-04-25T00:17:01;14.00;89.10
43346;DHT22;28937;51.160;4.146;2023-04-25T00:19:28;14.00;88.80
43346;DHT22;28937;51.160;4.146;2023-04-25T00:21:54;14.00;89.20
43346;DHT22;28937;51.160;4.146;2023-04-25T00:24:20;14.00;89.40
43346;DHT22;28937;51.160;4.146;2023-04-25T00:26:46;14.00;89.60
43346;DHT22;28937;51.160;4.146;2023-04-25T00:29:11;14.00;89.70
43346;DHT22;28937;51.160;4.146;2023-04-25T00:31:37;14.00;89.40
43346;DHT22;28937;51.160;4.146;2023-04-25T00:34:03;14.00;89.30
43346;DHT22;28937;51.160;4.146;2023-04-25T00:36:28;14.00;89.40
43346;DHT22;28937;51.160;4.146;2023-04-25T00:38:54;14.00;89.30
43346;DHT22;28937;51.160;4.146;2023-04-25T00:41:22;14.00;89.30
43346;DHT22;28937;51.160;4.146;2023-04-25T00:43:49;14.00;89.40
43346;DHT22;28937;51.160;4.146;2023-04-25T00:46:15;14.00;89.70
43346;DHT22;28937;51.160;4.146;2023-04-25T00:48:40;14.00;89.80
43346;DHT22;28937;51.160;4.146;2023-04-25T00:51:06;13.90;89.60
43346;DHT22;28937;51.160;4.146;2023-04-25T00:53:32;13.90;89.80
43346;DHT22;28937;51.160;4.146;2023-04-25T00:55:58;13.90;89.80
43346;DHT22;28937;51.160;4.146;2023-04-25T00:58:24;13.90;90.00
43346;DHT22;28937;51.160;4.146;2023-04-25T01:00:51;13.90;89.90
43346;DHT22;28937;51.160;4.146;2023-04-25T01:03:17;13.90;89.90
43346;DHT22;28937;51.160;4.146;2023-04-25T01:05:45;13.90;89.70
43346;DHT22;28937;51.160;4.146;2023-04-25T01:08:11;13.90;89.80
43346;DHT22;28937;51.160;4.146;2023-04-25T01:10:36;14.00;89.90
43346;DHT22;28937;51.160;4.146;2023-04-25T01:13:02;14.00;90.20
43346;DHT22;28937;51.160;4.146;2023-04-25T01:15:28;13.90;89.30
43346;DHT22;28937;51.160;4.146;2023-04-25T01:17:54;13.90;89.40
43346;DHT22;28937;51.160;4.146;2023-04-25T01:20:21;13.90;89.70
43346;DHT22;28937;51.160;4.146;2023-04-25T01:22:48;13.90;90.10
43346;DHT22;28937;51.160;4.146;2023-04-25T01:25:14;13.80;89.70
43346;DHT22;28937;51.160;4.146;2023-04-25T01:27:40;13.80;89.90
43346;DHT22;28937;51.160;4.146;2023-04-25T01:30:06;13.80;90.00
43346;DHT22;28937;51.160;4.146;2023-04-25T01:32:33;13.90;90.00
43346;DHT22;28937;51.160;4.146;2023-04-25T01:35:06;13.80;90.00
43346;DHT22;28937;51.160;4.146;2023-04-25T01:37:44;13.80;90.00
43346;DHT22;28937;51.160;4.146;2023-04-25T01:40:11;13.80;89.70
43346;DHT22;28937;51.160;4.146;2023-04-25T01:42:39;13.80;89.90
43346;DHT22;28937;51.160;4.146;2023-04-25T01:45:06;13.80;90.00
43346;DHT22;28937;51.160;4.146;2023-04-25T01:47:32;13.80;90.10
43346;DHT22;28937;51.160;4.146;2023-04-25T01:50:01;13.80;89.70
43346;DHT22;28937;51.160;4.146;2023-04-25T01:52:26;13.80;89.80
43346;DHT22;28937;51.160;4.146;2023-04-25T01:54:52;13.80;89.90
43346;DHT22;28937;51.160;4.146;2023-04-25T01:57:18;13.80;89.90
43346;DHT22;28937;51.160;4.146;2023-04-25T01:59:45;13.70;89.60
43346;DHT22;28937;51.160;4.146;2023-04-25T02:02:11;13.70;89.20
43346;DHT22;28937;51.160;4.146;2023-04-25T02:04:36;13.70;89.30
43346;DHT22;28937;51.160;4.146;2023-04-25T02:07:03;13.60;89.30
43346;DHT22;28937;51.160;4.146;2023-04-25T02:09:29;13.60;90.00
43346;DHT22;28937;51.160;4.146;2023-04-25T02:11:54;13.60;90.00
43346;DHT22;28937;51.160;4.146;2023-04-25T02:14:20;13.60;90.20
43346;DHT22;28937;51.160;4.146;2023-04-25T02:16:46;13.60;90.10
43346;DHT22;28937;51.160;4.146;2023-04-25T02:19:12;13.60;89.90
43346;DHT22;28937;51.160;4.146;2023-04-25T02:21:37;13.60;89.90
43346;DHT22;28937;51.160;4.146;2023-04-25T02:24:04;13.60;89.80
43346;DHT22;28937;51.160;4.146;2023-04-25T02:26:30;13.50;90.10
43346;DHT22;28937;51.160;4.146;2023-04-25T02:28:56;13.50;90.30
43346;DHT22;28937;51.160;4.146;2023-04-25T02:31:22;13.60;90.30
43346;DHT22;28937;51.160;4.146;2023-04-25T02:33:48;13.60;90.30
43346;DHT22;28937;51.160;4.146;2023-04-25T02:36:13;13.50;90.40
43346;DHT22;28937;51.160;4.146;2023-04-25T02:38:39;13.50;90.60
43346;DHT22;28937;51.160;4.146;2023-04-25T02:41:05;13.50;90.60
43346;DHT22;28937;51.160;4.146;2023-04-25T02:43:30;13.50;90.40
43346;DHT22;28937;51.160;4.146;2023-04-25T02:45:56;13.50;90.20
43346;DHT22;28937;51.160;4.146;2023-04-25T02:48:22;13.50;90.40
43346;DHT22;28937;51.160;4.146;2023-04-25T02:50:47;13.50;90.50
43346;DHT22;28937;51.160;4.146;2023-04-25T02:53:13;13.40;90.40
43346;DHT22;28937;51.160;4.146;2023-04-25T02:55:38;13.40;90.20
43346;DHT22;28937;51.160;4.146;2023-04-25T02:58:05;13.40;90.30
43346;DHT22;28937;51.160;4.146;2023-04-25T03:00:30;13.30;90.30
43346;DHT22;28937;51.160;4.146;2023-04-25T03:02:56;13.40;90.50
43346;DHT22;28937;51.160;4.146;2023-04-25T03:05:22;13.30;90.40
43346;DHT22;28937;51.160;4.146;2023-04-25T03:07:47;13.30;90.40
43346;DHT22;28937;51.160;4.146;2023-04-25T03:10:13;13.30;90.50
43346;DHT22;28937;51.160;4.146;2023-04-25T03:12:38;13.30;90.50
43346;DHT22;28937;51.160;4.146;2023-04-25T03:15:05;13.30;90.60
43346;DHT22;28937;51.160;4.146;2023-04-25T03:17:31;13.30;90.80
43346;DHT22;28937;51.160;4.146;2023-04-25T03:19:57;13.30;90.70
43346;DHT22;28937;51.160;4.146;2023-04-25T03:22:23;13.30;90.70
43346;DHT22;28937;51.160;4.146;2023-04-25T03:24:50;13.30;90.70
43346;DHT22;28937;51.160;4.146;2023-04-25T03:27:15;13.30;90.80
43346;DHT22;28937;51.160;4.146;2023-04-25T03:29:41;13.30;90.70
43346;DHT22;28937;51.160;4.146;2023-04-25T03:32:07;13.30;90.70
43346;DHT22;28937;51.160;4.146;2023-04-25T03:34:32;13.30;90.70
43346;DHT22;28937;51.160;4.146;2023-04-25T03:36:58;13.40;90.60
43346;DHT22;28937;51.160;4.146;2023-04-25T03:39:23;13.50;89.20
43346;DHT22;28937;51.160;4.146;2023-04-25T03:41:49;13.50;89.10
43346;DHT22;28937;51.160;4.146;2023-04-25T03:44:14;13.40;88.10
43346;DHT22;28937;51.160;4.146;2023-04-25T03:46:40;13.40;87.10
43346;DHT22;28937;51.160;4.146;2023-04-25T03:49:06;13.30;86.40
43346;DHT22;28937;51.160;4.146;2023-04-25T03:51:32;13.20;87.60
43346;DHT22;28937;51.160;4.146;2023-04-25T03:53:57;13.10;87.50
43346;DHT22;28937;51.160;4.146;2023-04-25T03:56:23;13.10;87.50
43346;DHT22;28937;51.160;4.146;2023-04-25T03:58:49;13.10;87.50
43346;DHT22;28937;51.160;4.146;2023-04-25T04:01:14;13.10;87.90
43346;DHT22;28937;51.160;4.146;2023-04-25T04:03:40;13.10;87.60
43346;DHT22;28937;51.160;4.146;2023-04-25T04:06:07;13.10;86.90
43346;DHT22;28937;51.160;4.146;2023-04-25T04:08:33;13.00;86.50
43346;DHT22;28937;51.160;4.146;2023-04-25T04:10:59;13.00;87.20
43346;DHT22;28937;51.160;4.146;2023-04-25T04:13:28;13.00;86.50
43346;DHT22;28937;51.160;4.146;2023-04-25T04:15:54;13.00;86.20
43346;DHT22;28937;51.160;4.146;2023-04-25T04:18:21;13.00;85.50
43346;DHT22;28937;51.160;4.146;2023-04-25T04:20:47;12.90;85.50
43346;DHT22;28937;51.160;4.146;2023-04-25T04:23:13;12.90;85.70
43346;DHT22;28937;51.160;4.146;2023-04-25T04:25:39;12.90;86.00
43346;DHT22;28937;51.160;4.146;2023-04-25T04:28:05;12.90;85.90
43346;DHT22;28937;51.160;4.146;2023-04-25T04:30:31;12.90;86.40
43346;DHT22;28937;51.160;4.146;2023-04-25T04:32:59;12.90;86.20
43346;DHT22;28937;51.160;4.146;2023-04-25T04:35:26;12.90;85.80
43346;DHT22;28937;51.160;4.146;2023-04-25T04:37:51;12.90;85.70
43346;DHT22;28937;51.160;4.146;2023-04-25T04:40:18;12.80;85.50
43346;DHT22;28937;51.160;4.146;2023-04-25T04:42:44;12.80;85.90
43346;DHT22;28937;51.160;4.146;2023-04-25T04:45:13;12.80;86.20
43346;DHT22;28937;51.160;4.146;2023-04-25T04:47:40;12.80;83.80
43346;DHT22;28937;51.160;4.146;2023-04-25T04:50:09;12.50;83.50
43346;DHT22;28937;51.160;4.146;2023-04-25T04:52:36;12.20;84.40
43346;DHT22;28937;51.160;4.146;2023-04-25T04:55:03;12.00;86.00
43346;DHT22;28937;51.160;4.146;2023-04-25T04:57:29;11.90;86.50
43346;DHT22;28937;51.160;4.146;2023-04-25T04:59:55;11.80;86.20
43346;DHT22;28937;51.160;4.146;2023-04-25T05:02:20;11.60;86.50
43346;DHT22;28937;51.160;4.146;2023-04-25T05:04:46;11.50;88.10
43346;DHT22;28937;51.160;4.146;2023-04-25T05:07:12;11.60;88.00
43346;DHT22;28937;51.160;4.146;2023-04-25T05:09:37;11.50;88.60
43346;DHT22;28937;51.160;4.146;2023-04-25T05:12:03;11.40;88.90
43346;DHT22;28937;51.160;4.146;2023-04-25T05:14:30;11.30;90.00
43346;DHT22;28937;51.160;4.146;2023-04-25T05:16:56;11.20;89.80
43346;DHT22;28937;51.160;4.146;2023-04-25T05:19:21;11.00;90.50
43346;DHT22;28937;51.160;4.146;2023-04-25T05:21:47;11.00;90.80
43346;DHT22;28937;51.160;4.146;2023-04-25T05:24:12;11.00;90.90
43346;DHT22;28937;51.160;4.146;2023-04-25T05:26:38;11.20;90.70
43346;DHT22;28937;51.160;4.146;2023-04-25T05:29:04;11.10;90.70
43346;DHT22;28937;51.160;4.146;2023-04-25T05:31:31;10.90;90.60
43346;DHT22;28937;51.160;4.146;2023-04-25T05:33:57;10.90;90.80
43346;DHT22;28937;51.160;4.146;2023-04-25T05:36:23;10.90;90.90
43346;DHT22;28937;51.160;4.146;2023-04-25T05:38:49;11.00;90.80
43346;DHT22;28937;51.160;4.146;2023-04-25T05:41:14;10.70;90.80
43346;DHT22;28937;51.160;4.146;2023-04-25T05:43:40;10.70;91.40
43346;DHT22;28937;51.160;4.146;2023-04-25T05:46:11;10.80;91.10
43346;DHT22;28937;51.160;4.146;2023-04-25T05:48:37;10.80;91.00
43346;DHT22;28937;51.160;4.146;2023-04-25T05:51:03;10.70;91.20
43346;DHT22;28937;51.160;4.146;2023-04-25T05:53:28;11.10;91.60
43346;DHT22;28937;51.160;4.146;2023-04-25T05:55:54;11.40;90.90
43346;DHT22;28937;51.160;4.146;2023-04-25T05:58:19;11.50;90.90
43346;DHT22;28937;51.160;4.146;2023-04-25T06:00:45;11.60;90.60
43346;DHT22;28937;51.160;4.146;2023-04-25T06:03:12;11.70;90.70
43346;DHT22;28937;51.160;4.146;2023-04-25T06:05:41;11.70;90.70
43346;DHT22;28937;51.160;4.146;2023-04-25T06:08:06;11.80;90.70
43346;DHT22;28937;51.160;4.146;2023-04-25T06:10:32;11.90;91.00
43346;DHT22;28937;51.160;4.146;2023-04-25T06:12:57;12.00;90.90
43346;DHT22;28937;51.160;4.146;2023-04-25T06:15:23;12.20;91.00
43346;DHT22;28937;51.160;4.146;2023-04-25T06:17:48;12.10;90.50
43346;DHT22;28937;51.160;4.146;2023-04-25T06:20:14;12.10;90.30
43346;DHT22;28937;51.160;4.146;2023-04-25T06:22:40;12.20;89.90
43346;DHT22;28937;51.160;4.146;2023-04-25T06:25:05;12.30;89.70
43346;DHT22;28937;51.160;4.146;2023-04-25T06:27:33;12.30;89.40
43346;DHT22;28937;51.160;4.146;2023-04-25T06:29:58;12.20;89.80
43346;DHT22;28937;51.160;4.146;2023-04-25T06:32:24;12.30;90.10
43346;DHT22;28937;51.160;4.146;2023-04-25T06:34:51;12.30;89.40
43346;DHT22;28937;51.160;4.146;2023-04-25T06:37:16;12.40;89.40
43346;DHT22;28937;51.160;4.146;2023-04-25T06:39:42;12.40;88.80
43346;DHT22;28937;51.160;4.146;2023-04-25T06:42:07;12.50;88.40
43346;DHT22;28937;51.160;4.146;2023-04-25T06:44:33;12.40;89.00
43346;DHT22;28937;51.160;4.146;2023-04-25T06:46:59;12.50;88.80
43346;DHT22;28937;51.160;4.146;2023-04-25T06:49:24;12.50;88.80
43346;DHT22;28937;51.160;4.146;2023-04-25T06:51:50;12.50;89.20
43346;DHT22;28937;51.160;4.146;2023-04-25T06:54:15;12.50;89.40
43346;DHT22;28937;51.160;4.146;2023-04-25T06:56:41;12.60;89.00
43346;DHT22;28937;51.160;4.146;2023-04-25T06:59:07;12.60;89.30
43346;DHT22;28937;51.160;4.146;2023-04-25T07:01:32;12.70;87.80
43346;DHT22;28937;51.160;4.146;2023-04-25T07:03:58;12.70;87.60
43346;DHT22;28937;51.160;4.146;2023-04-25T07:06:24;12.80;89.30
43346;DHT22;28937;51.160;4.146;2023-04-25T07:08:51;12.80;87.20
43346;DHT22;28937;51.160;4.146;2023-04-25T07:11:16;12.90;85.50
43346;DHT22;28937;51.160;4.146;2023-04-25T07:13:42;12.90;85.20
43346;DHT22;28937;51.160;4.146;2023-04-25T07:16:07;12.90;85.30
43346;DHT22;28937;51.160;4.146;2023-04-25T07:18:33;13.00;85.60
43346;DHT22;28937;51.160;4.146;2023-04-25T07:20:58;13.10;85.10
43346;DHT22;28937;51.160;4.146;2023-04-25T07:23:24;13.20;85.50
43346;DHT22;28937;51.160;4.146;2023-04-25T07:25:50;13.30;85.70
43346;DHT22;28937;51.160;4.146;2023-04-25T07:28:16;13.50;85.30
43346;DHT22;28937;51.160;4.146;2023-04-25T07:30:41;13.70;85.10
43346;DHT22;28937;51.160;4.146;2023-04-25T07:33:07;13.80;83.50
43346;DHT22;28937;51.160;4.146;2023-04-25T07:35:32;13.90;82.40
43346;DHT22;28937;51.160;4.146;2023-04-25T07:37:58;14.00;80.50
43346;DHT22;28937;51.160;4.146;2023-04-25T07:40:24;14.00;81.60
43346;DHT22;28937;51.160;4.146;2023-04-25T07:42:50;14.10;81.20
43346;DHT22;28937;51.160;4.146;2023-04-25T07:45:15;14.20;80.00
43346;DHT22;28937;51.160;4.146;2023-04-25T07:47:41;14.30;79.30
43346;DHT22;28937;51.160;4.146;2023-04-25T07:50:07;14.40;79.40
43346;DHT22;28937;51.160;4.146;2023-04-25T07:52:33;14.50;78.70
43346;DHT22;28937;51.160;4.146;2023-04-25T07:54:58;14.40;76.20
43346;DHT22;28937;51.160;4.146;2023-04-25T07:57:24;14.40;76.80
43346;DHT22;28937;51.160;4.146;2023-04-25T07:59:49;14.30;77.40
43346;DHT22;28937;51.160;4.146;2023-04-25T08:02:15;14.30;76.90
43346;DHT22;28937;51.160;4.146;2023-04-25T08:04:41;14.30;76.80
43346;DHT22;28937;51.160;4.146;2023-04-25T08:07:06;14.30;77.20
43346;DHT22;28937;51.160;4.146;2023-04-25T08:09:32;14.20;80.00
43346;DHT22;28937;51.160;4.146;2023-04-25T08:12:02;14.20;80.50
43346;DHT22;28937;51.160;4.146;2023-04-25T08:14:28;14.20;81.50
43346;DHT22;28937;51.160;4.146;2023-04-25T08:16:56;14.10;82.40
43346;DHT22;28937;51.160;4.146;2023-04-25T08:19:22;14.10;82.40
43346;DHT22;28937;51.160;4.146;2023-04-25T08:21:47;14.20;83.50
43346;DHT22;28937;51.160;4.146;2023-04-25T08:24:13;14.20;83.40
43346;DHT22;28937;51.160;4.146;2023-04-25T08:26:39;14.20;84.40
43346;DHT22;28937;51.160;4.146;2023-04-25T08:29:06;14.10;84.10
43346;DHT22;28937;51.160;4.146;2023-04-25T08:31:31;14.10;85.20
43346;DHT22;28937;51.160;4.146;2023-04-25T08:33:57;14.10;83.40
43346;DHT22;28937;51.160;4.146;2023-04-25T08:36:23;14.10;83.40
43346;DHT22;28937;51.160;4.146;2023-04-25T08:38:49;14.10;81.70
43346;DHT22;28937;51.160;4.146;2023-04-25T08:41:15;14.20;81.00
43346;DHT22;28937;51.160;4.146;2023-04-25T08:43:42;14.20;80.80
43346;DHT22;28937;51.160;4.146;2023-04-25T08:46:09;14.10;81.20
43346;DHT22;28937;51.160;4.146;2023-04-25T08:48:36;14.30;80.60
43346;DHT22;28937;51.160;4.146;2023-04-25T08:51:02;14.30;80.80
43346;DHT22;28937;51.160;4.146;2023-04-25T08:53:32;14.40;80.90
43346;DHT22;28937;51.160;4.146;2023-04-25T08:56:00;14.30;80.90
43346;DHT22;28937;51.160;4.146;2023-04-25T08:58:29;14.30;80.10
43346;DHT22;28937;51.160;4.146;2023-04-25T09:00:56;14.40;79.90
43346;DHT22;28937;51.160;4.146;2023-04-25T09:03:21;14.40;79.80
43346;DHT22;28937;51.160;4.146;2023-04-25T09:05:47;14.40;80.70
43346;DHT22;28937;51.160;4.146;2023-04-25T09:08:13;14.40;79.40
43346;DHT22;28937;51.160;4.146;2023-04-25T09:10:40;14.50;78.70
43346;DHT22;28937;51.160;4.146;2023-04-25T09:13:10;14.50;78.20
43346;DHT22;28937;51.160;4.146;2023-04-25T09:16:09;14.50;78.30
43346;DHT22;28937;51.160;4.146;2023-04-25T09:18:35;14.50;77.70
43346;DHT22;28937;51.160;4.146;2023-04-25T09:21:11;14.50;77.30
43346;DHT22;28937;51.160;4.146;2023-04-25T09:23:44;14.40;76.60
43346;DHT22;28937;51.160;4.146;2023-04-25T09:26:14;14.50;78.20
43346;DHT22;28937;51.160;4.146;2023-04-25T09:28:40;14.50;77.50
43346;DHT22;28937;51.160;4.146;2023-04-25T09:31:09;14.50;76.70
43346;DHT22;28937;51.160;4.146;2023-04-25T09:33:36;14.50;76.40
43346;DHT22;28937;51.160;4.146;2023-04-25T09:36:07;14.60;76.20
43346;DHT22;28937;51.160;4.146;2023-04-25T09:38:41;14.60;76.10
43346;DHT22;28937;51.160;4.146;2023-04-25T09:41:08;14.60;76.80
43346;DHT22;28937;51.160;4.146;2023-04-25T09:43:34;14.60;76.50
43346;DHT22;28937;51.160;4.146;2023-04-25T09:46:00;14.60;77.00
43346;DHT22;28937;51.160;4.146;2023-04-25T09:48:27;14.60;80.20
43346;DHT22;28937;51.160;4.146;2023-04-25T09:53:32;14.50;83.40
43346;DHT22;28937;51.160;4.146;2023-04-25T09:56:00;14.40;84.00
43346;DHT22;28937;51.160;4.146;2023-04-25T09:58:29;14.40;84.30
43346;DHT22;28937;51.160;4.146;2023-04-25T10:01:00;14.40;84.00
43346;DHT22;28937;51.160;4.146;2023-04-25T10:03:26;14.40;83.10
43346;DHT22;28937;51.160;4.146;2023-04-25T10:05:53;14.40;83.40
43346;DHT22;28937;51.160;4.146;2023-04-25T10:08:20;14.40;82.70
43346;DHT22;28937;51.160;4.146;2023-04-25T10:10:46;14.50;81.60
43346;DHT22;28937;51.160;4.146;2023-04-25T10:13:14;14.50;80.60
43346;DHT22;28937;51.160;4.146;2023-04-25T10:15:41;14.50;79.90
43346;DHT22;28937;51.160;4.146;2023-04-25T10:18:07;14.50;79.60
43346;DHT22;28937;51.160;4.146;2023-04-25T10:20:33;14.50;79.60
43346;DHT22;28937;51.160;4.146;2023-04-25T10:23:12;14.60;80.10
43346;DHT22;28937;51.160;4.146;2023-04-25T10:25:39;14.60;80.30
43346;DHT22;28937;51.160;4.146;2023-04-25T10:28:05;14.70;79.60
43346;DHT22;28937;51.160;4.146;2023-04-25T10:30:31;14.60;80.00
43346;DHT22;28937;51.160;4.146;2023-04-25T10:32:58;14.60;79.10
43346;DHT22;28937;51.160;4.146;2023-04-25T10:35:27;14.70;75.80
43346;DHT22;28937;51.160;4.146;2023-04-25T10:38:09;14.60;76.50
43346;DHT22;28937;51.160;4.146;2023-04-25T10:40:35;14.60;78.10
43346;DHT22;28937;51.160;4.146;2023-04-25T10:46:02;14.80;77.10
43346;DHT22;28937;51.160;4.146;2023-04-25T10:48:29;14.80;77.60
43346;DHT22;28937;51.160;4.146;2023-04-25T10:51:12;14.90;76.20
43346;DHT22;28937;51.160;4.146;2023-04-25T10:53:41;14.90;74.70
43346;DHT22;28937;51.160;4.146;2023-04-25T10:56:22;14.90;75.30
43346;DHT22;28937;51.160;4.146;2023-04-25T10:58:48;14.80;72.30
43346;DHT22;28937;51.160;4.146;2023-04-25T11:01:19;14.90;75.00
43346;DHT22;28937;51.160;4.146;2023-04-25T11:03:45;14.90;71.80
43346;DHT22;28937;51.160;4.146;2023-04-25T11:06:42;14.90;71.90
43346;DHT22;28937;51.160;4.146;2023-04-25T11:09:12;14.90;72.00
43346;DHT22;28937;51.160;4.146;2023-04-25T11:11:38;15.00;72.70
43346;DHT22;28937;51.160;4.146;2023-04-25T11:14:04;15.00;71.10
43346;DHT22;28937;51.160;4.146;2023-04-25T11:16:30;15.00;74.60
43346;DHT22;28937;51.160;4.146;2023-04-25T11:18:57;15.00;72.40
43346;DHT22;28937;51.160;4.146;2023-04-25T11:21:24;15.10;73.10
43346;DHT22;28937;51.160;4.146;2023-04-25T11:23:51;15.10;72.90
43346;DHT22;28937;51.160;4.146;2023-04-25T11:26:19;15.10;71.00
43346;DHT22;28937;51.160;4.146;2023-04-25T11:28:45;15.20;70.30
43346;DHT22;28937;51.160;4.146;2023-04-25T11:31:12;15.20;70.70
43346;DHT22;28937;51.160;4.146;2023-04-25T11:33:38;15.10;69.60
43346;DHT22;28937;51.160;4.146;2023-04-25T11:36:04;15.10;70.70
43346;DHT22;28937;51.160;4.146;2023-04-25T11:38:30;15.10;72.70
43346;DHT22;28937;51.160;4.146;2023-04-25T11:40:56;15.10;73.70
43346;DHT22;28937;51.160;4.146;2023-04-25T11:43:22;15.00;74.00
43346;DHT22;28937;51.160;4.146;2023-04-25T11:45:49;15.10;76.60
43346;DHT22;28937;51.160;4.146;2023-04-25T11:48:16;15.10;76.00
43346;DHT22;28937;51.160;4.146;2023-04-25T11:50:42;15.10;72.70
43346;DHT22;28937;51.160;4.146;2023-04-25T11:53:07;15.10;72.60
43346;DHT22;28937;51.160;4.146;2023-04-25T11:55:34;15.10;71.70
43346;DHT22;28937;51.160;4.146;2023-04-25T11:58:00;15.20;75.10
43346;DHT22;28937;51.160;4.146;2023-04-25T12:00:27;15.30;76.50
43346;DHT22;28937;51.160;4.146;2023-04-25T12:02:56;15.30;73.00
43346;DHT22;28937;51.160;4.146;2023-04-25T12:05:27;15.40;71.60
43346;DHT22;28937;51.160;4.146;2023-04-25T12:07:54;15.40;71.60
43346;DHT22;28937;51.160;4.146;2023-04-25T12:10:20;15.40;68.60
43346;DHT22;28937;51.160;4.146;2023-04-25T12:12:47;15.40;68.80
43346;DHT22;28937;51.160;4.146;2023-04-25T12:15:18;15.40;69.00
43346;DHT22;28937;51.160;4.146;2023-04-25T12:17:48;15.40;71.60
43346;DHT22;28937;51.160;4.146;2023-04-25T12:20:18;15.40;68.90
43346;DHT22;28937;51.160;4.146;2023-04-25T12:22:47;15.40;69.10
43346;DHT22;28937;51.160;4.146;2023-04-25T12:28:19;15.40;70.70
43346;DHT22;28937;51.160;4.146;2023-04-25T12:31:05;15.40;71.00
43346;DHT22;28937;51.160;4.146;2023-04-25T12:33:33;15.40;70.40
43346;DHT22;28937;51.160;4.146;2023-04-25T12:36:00;15.30;71.50
43346;DHT22;28937;51.160;4.146;2023-04-25T12:38:30;15.20;72.20
43346;DHT22;28937;51.160;4.146;2023-04-25T12:40:57;15.30;72.70
43346;DHT22;28937;51.160;4.146;2023-04-25T12:43:23;15.20;74.50
43346;DHT22;28937;51.160;4.146;2023-04-25T12:45:50;15.10;73.30
43346;DHT22;28937;51.160;4.146;2023-04-25T12:48:17;15.00;73.90
43346;DHT22;28937;51.160;4.146;2023-04-25T12:50:43;15.00;73.60
43346;DHT22;28937;51.160;4.146;2023-04-25T12:53:09;15.00;72.40
43346;DHT22;28937;51.160;4.146;2023-04-25T12:55:35;14.90;70.40
43346;DHT22;28937;51.160;4.146;2023-04-25T12:58:00;14.90;71.10
43346;DHT22;28937;51.160;4.146;2023-04-25T13:00:26;14.90;69.90
43346;DHT22;28937;51.160;4.146;2023-04-25T13:02:52;14.90;72.60
43346;DHT22;28937;51.160;4.146;2023-04-25T13:05:17;14.90;71.80
43346;DHT22;28937;51.160;4.146;2023-04-25T13:07:43;14.90;72.80
43346;DHT22;28937;51.160;4.146;2023-04-25T13:10:10;14.90;73.10
43346;DHT22;28937;51.160;4.146;2023-04-25T13:12:36;14.90;73.90
43346;DHT22;28937;51.160;4.146;2023-04-25T13:15:01;15.00;73.80
43346;DHT22;28937;51.160;4.146;2023-04-25T13:17:27;14.90;71.80
43346;DHT22;28937;51.160;4.146;2023-04-25T13:19:52;15.00;73.00
43346;DHT22;28937;51.160;4.146;2023-04-25T13:22:18;15.00;72.70
43346;DHT22;28937;51.160;4.146;2023-04-25T13:24:45;15.00;71.00
43346;DHT22;28937;51.160;4.146;2023-04-25T13:27:11;14.90;75.30
43346;DHT22;28937;51.160;4.146;2023-04-25T13:29:37;15.00;72.70
43346;DHT22;28937;51.160;4.146;2023-04-25T13:32:04;14.90;74.00
43346;DHT22;28937;51.160;4.146;2023-04-25T13:34:30;15.00;73.80
43346;DHT22;28937;51.160;4.146;2023-04-25T13:36:56;15.00;74.70
43346;DHT22;28937;51.160;4.146;2023-04-25T13:39:21;15.00;72.90
43346;DHT22;28937;51.160;4.146;2023-04-25T13:41:47;15.00;73.80
43346;DHT22;28937;51.160;4.146;2023-04-25T13:44:14;15.00;73.70
43346;DHT22;28937;51.160;4.146;2023-04-25T13:46:39;15.00;71.80
43346;DHT22;28937;51.160;4.146;2023-04-25T13:49:05;15.00;73.00
43346;DHT22;28937;51.160;4.146;2023-04-25T13:51:31;15.00;72.20
43346;DHT22;28937;51.160;4.146;2023-04-25T13:53:57;15.00;71.50
43346;DHT22;28937;51.160;4.146;2023-04-25T13:56:23;15.00;72.50
43346;DHT22;28937;51.160;4.146;2023-04-25T13:58:50;15.00;72.30
43346;DHT22;28937;51.160;4.146;2023-04-25T14:01:17;15.00;71.90
43346;DHT22;28937;51.160;4.146;2023-04-25T14:03:42;14.90;70.50
43346;DHT22;28937;51.160;4.146;2023-04-25T14:06:08;15.00;69.30
43346;DHT22;28937;51.160;4.146;2023-04-25T14:08:34;14.90;71.00
43346;DHT22;28937;51.160;4.146;2023-04-25T14:11:00;14.90;71.70
43346;DHT22;28937;51.160;4.146;2023-04-25T14:13:26;14.90;70.40
43346;DHT22;28937;51.160;4.146;2023-04-25T14:15:51;14.90;71.70
43346;DHT22;28937;51.160;4.146;2023-04-25T14:18:18;14.90;70.80
43346;DHT22;28937;51.160;4.146;2023-04-25T14:20:44;14.80;69.70
43346;DHT22;28937;51.160;4.146;2023-04-25T14:23:10;14.80;70.10
43346;DHT22;28937;51.160;4.146;2023-04-25T14:25:35;14.80;70.90
43346;DHT22;28937;51.160;4.146;2023-04-25T14:28:01;14.80;71.50
43346;DHT22;28937;51.160;4.146;2023-04-25T14:30:27;14.80;71.90
43346;DHT22;28937;51.160;4.146;2023-04-25T14:32:53;14.80;71.20
43346;DHT22;28937;51.160;4.146;2023-04-25T14:35:19;14.80;71.70
43346;DHT22;28937;51.160;4.146;2023-04-25T14:37:45;14.80;70.50
43346;DHT22;28937;51.160;4.146;2023-04-25T14:40:11;14.70;71.20
43346;DHT22;28937;51.160;4.146;2023-04-25T14:42:41;14.70;70.60
43346;DHT22;28937;51.160;4.146;2023-04-25T14:45:08;14.80;71.70
43346;DHT22;28937;51.160;4.146;2023-04-25T14:47:34;14.70;70.70
43346;DHT22;28937;51.160;4.146;2023-04-25T14:50:01;14.70;71.00
43346;DHT22;28937;51.160;4.146;2023-04-25T14:52:27;14.80;69.20
43346;DHT22;28937;51.160;4.146;2023-04-25T14:54:53;14.70;70.20
43346;DHT22;28937;51.160;4.146;2023-04-25T14:57:18;14.70;71.30
43346;DHT22;28937;51.160;4.146;2023-04-25T14:59:44;14.70;72.50
43346;DHT22;28937;51.160;4.146;2023-04-25T15:02:10;14.80;73.80
43346;DHT22;28937;51.160;4.146;2023-04-25T15:04:36;14.90;73.00
43346;DHT22;28937;51.160;4.146;2023-04-25T15:07:02;14.90;74.50
43346;DHT22;28937;51.160;4.146;2023-04-25T15:09:28;14.90;75.00
43346;DHT22;28937;51.160;4.146;2023-04-25T15:11:53;14.90;73.60
43346;DHT22;28937;51.160;4.146;2023-04-25T15:14:19;15.00;74.80
43346;DHT22;28937;51.160;4.146;2023-04-25T15:16:45;15.00;77.60
43346;DHT22;28937;51.160;4.146;2023-04-25T15:19:10;15.00;76.60
43346;DHT22;28937;51.160;4.146;2023-04-25T15:21:36;15.10;77.90
43346;DHT22;28937;51.160;4.146;2023-04-25T15:24:02;15.10;77.30
43346;DHT22;28937;51.160;4.146;2023-04-25T15:26:28;15.10;77.80
43346;DHT22;28937;51.160;4.146;2023-04-25T15:28:53;15.10;76.30
43346;DHT22;28937;51.160;4.146;2023-04-25T15:31:19;15.10;78.80
43346;DHT22;28937;51.160;4.146;2023-04-25T15:33:45;15.20;81.70
43346;DHT22;28937;51.160;4.146;2023-04-25T15:36:11;15.20;79.30